Time;durP1;ratioP1;P1;durP2;ratioP2;P2;SDS_P1;SDS_P2;PMS_P1;PMS_P2;Temp;Humidity;BMP_temperature;BMP_pressure;BME280_temperature;BME280_humidity;BME280_pressure;Samples;Min_cycle;Max_cycle;Signal;HPM_P1;HPM_P2
2023/09/02 00:01:40;;;;;;;9.90;8.27;;;16.30;99.90;;;;;;5111936;28;20681;-52
2023/09/02 00:04:07;;;;;;;9.63;6.72;;;16.30;99.90;;;;;;5112177;28;20174;-44
2023/09/02 00:06:33;;;;;;;8.50;6.15;;;16.20;99.90;;;;;;5111921;28;20170;-45
2023/09/02 00:08:58;;;;;;;6.13;5.38;;;16.20;99.90;;;;;;5112343;28;20536;-44
2023/09/02 00:11:24;;;;;;;6.20;5.45;;;16.10;99.90;;;;;;5111099;28;20188;-44
2023/09/02 00:13:50;;;;;;;7.20;5.45;;;16.20;99.90;;;;;;5111839;28;20641;-45
2023/09/02 00:16:17;;;;;;;8.73;6.53;;;16.20;99.90;;;;;;5111842;28;20651;-44
2023/09/02 00:18:42;;;;;;;6.47;5.20;;;16.10;99.90;;;;;;5111648;28;20580;-44
2023/09/02 00:21:08;;;;;;;7.80;5.20;;;16.20;99.90;;;;;;5111684;28;20172;-44
2023/09/02 00:23:33;;;;;;;7.93;6.95;;;16.00;99.90;;;;;;5111834;28;20168;-44
2023/09/02 00:25:59;;;;;;;8.57;7.25;;;16.00;99.90;;;;;;5112191;28;20204;-44
2023/09/02 00:28:25;;;;;;;9.27;7.25;;;16.10;99.90;;;;;;5111737;28;20169;-44
2023/09/02 00:30:50;;;;;;;10.68;8.57;;;16.00;99.90;;;;;;5111702;28;20172;-44
2023/09/02 00:33:15;;;;;;;16.40;9.95;;;16.00;99.90;;;;;;5111776;28;20164;-44
2023/09/02 00:35:41;;;;;;;11.27;8.30;;;15.90;99.90;;;;;;5111685;28;20177;-44
2023/09/02 00:38:07;;;;;;;9.85;8.75;;;15.90;99.90;;;;;;5111493;28;20215;-44
2023/09/02 00:40:33;;;;;;;15.52;7.88;;;;;;;;;;5111797;28;20242;-44
2023/09/02 00:43:02;;;;;;;16.23;10.52;;;15.90;99.90;;;;;;5112311;28;20268;-44
2023/09/02 00:45:27;;;;;;;21.23;16.30;;;15.90;99.90;;;;;;5112002;28;20220;-44
2023/09/02 00:47:53;;;;;;;29.02;20.40;;;15.90;99.90;;;;;;5111765;28;20544;-44
2023/09/02 00:50:20;;;;;;;20.63;17.33;;;15.90;99.90;;;;;;5111718;28;20165;-44
2023/09/02 00:52:47;;;;;;;18.60;13.55;;;15.80;99.90;;;;;;5111783;28;20169;-44
2023/09/02 00:55:13;;;;;;;14.85;9.88;;;15.80;99.90;;;;;;5111532;28;20187;-45
2023/09/02 00:57:39;;;;;;;11.23;7.82;;;15.70;99.90;;;;;;5111334;28;20201;-44
2023/09/02 01:00:05;;;;;;;10.48;8.35;;;15.70;99.90;;;;;;5111478;28;20209;-44
2023/09/02 01:02:32;;;;;;;14.10;9.90;;;15.70;99.90;;;;;;5110549;28;20571;-44
2023/09/02 01:04:59;;;;;;;12.80;9.00;;;15.80;99.90;;;;;;5111859;28;20165;-44
2023/09/02 01:07:25;;;;;;;9.30;7.68;;;15.80;99.90;;;;;;5111340;28;20169;-44
2023/09/02 01:09:51;;;;;;;15.65;8.50;;;15.70;99.90;;;;;;5111273;28;20522;-45
2023/09/02 01:12:17;;;;;;;8.98;7.50;;;15.70;99.90;;;;;;5111326;28;20165;-44
2023/09/02 01:14:43;;;;;;;7.25;6.40;;;15.70;99.90;;;;;;5111259;28;20169;-44
2023/09/02 01:17:09;;;;;;;8.20;7.18;;;15.70;99.90;;;;;;5111247;28;20204;-44
2023/09/02 01:19:36;;;;;;;12.20;6.30;;;15.70;99.90;;;;;;5111320;28;20176;-45
2023/09/02 01:22:16;;;;;;;9.82;6.57;;;15.70;99.90;;;;;;5111580;28;20621;-44
2023/09/02 01:25:09;;;;;;;7.20;5.78;;;15.60;99.90;;;;;;5114697;28;20168;-44
2023/09/02 01:27:38;;;;;;;11.13;6.82;;;15.70;99.90;;;;;;5114899;28;20169;-44
2023/09/02 01:30:14;;;;;;;9.35;6.65;;;15.70;99.90;;;;;;5115054;28;20165;-44
2023/09/02 01:32:42;;;;;;;8.90;6.90;;;15.60;99.90;;;;;;5115094;28;20244;-44
2023/09/02 01:35:09;;;;;;;13.63;8.10;;;15.60;99.90;;;;;;5115043;28;20200;-44
2023/09/02 01:37:42;;;;;;;10.77;7.88;;;15.70;99.90;;;;;;5114548;28;20204;-44
2023/09/02 01:40:11;;;;;;;10.80;8.45;;;15.60;99.90;;;;;;5114931;28;20173;-44
2023/09/02 01:42:37;;;;;;;10.63;8.25;;;15.70;99.90;;;;;;5114538;28;20181;-45
2023/09/02 01:45:04;;;;;;;13.75;8.65;;;15.60;99.90;;;;;;5114378;28;20236;-44
2023/09/02 01:47:30;;;;;;;12.63;8.32;;;15.60;99.90;;;;;;5114868;27;20172;-44
2023/09/02 01:49:56;;;;;;;10.27;8.35;;;15.70;99.90;;;;;;5114438;28;20588;-44
2023/09/02 01:52:23;;;;;;;11.88;8.27;;;15.70;99.90;;;;;;5114370;28;20200;-45
2023/09/02 01:54:49;;;;;;;9.30;8.40;;;15.70;99.90;;;;;;5114304;28;20180;-44
2023/09/02 01:57:15;;;;;;;10.35;8.82;;;15.60;99.90;;;;;;5114526;28;20336;-44
2023/09/02 01:59:41;;;;;;;12.75;8.98;;;15.50;99.90;;;;;;5114251;28;20182;-44
2023/09/02 02:02:06;;;;;;;9.70;8.60;;;15.60;99.90;;;;;;5114165;28;20547;-44
2023/09/02 02:04:41;;;;;;;12.50;8.73;;;15.60;99.90;;;;;;5114597;28;20164;-44
2023/09/02 02:07:11;;;;;;;11.50;8.65;;;15.50;99.90;;;;;;5114162;28;20188;-44
2023/09/02 02:09:55;;;;;;;10.13;8.13;;;15.50;99.90;;;;;;5114034;28;20165;-44
2023/09/02 02:12:22;;;;;;;10.40;7.97;;;15.50;99.90;;;;;;5114026;28;20157;-44
2023/09/02 02:14:47;;;;;;;11.98;8.27;;;15.50;99.90;;;;;;5114218;28;20586;-44
2023/09/02 02:17:13;;;;;;;9.35;7.85;;;15.50;99.90;;;;;;5113761;28;20740;-44
2023/09/02 02:19:39;;;;;;;8.98;7.80;;;15.50;99.90;;;;;;5113906;28;20298;-44
2023/09/02 02:22:05;;;;;;;10.27;7.95;;;15.50;99.90;;;;;;5113800;28;20248;-44
2023/09/02 02:24:31;;;;;;;10.27;7.82;;;15.50;99.90;;;;;;5114297;28;20241;-44
2023/09/02 02:26:57;;;;;;;8.80;7.90;;;15.50;99.90;;;;;;5114326;28;20680;-45
2023/09/02 02:29:23;;;;;;;8.75;7.85;;;;;;;;;;5112424;28;20172;-44
2023/09/02 02:31:49;;;;;;;9.00;8.05;;;15.40;99.90;;;;;;5113880;28;20176;-44
2023/09/02 02:34:15;;;;;;;8.57;7.65;;;15.40;99.90;;;;;;5113102;28;20164;-44
2023/09/02 02:36:40;;;;;;;9.32;8.40;;;15.60;99.90;;;;;;5113265;28;20173;-44
2023/09/02 02:39:06;;;;;;;9.38;8.35;;;15.50;99.90;;;;;;5113458;28;20183;-44
2023/09/02 02:41:32;;;;;;;8.85;7.90;;;;;;;;;;5113356;28;20720;-44
2023/09/02 02:43:59;;;;;;;11.48;8.07;;;15.40;99.90;;;;;;5113704;28;20224;-45
2023/09/02 02:46:25;;;;;;;12.45;8.10;;;15.40;99.90;;;;;;5113357;28;20164;-44
2023/09/02 02:48:51;;;;;;;11.95;8.40;;;15.40;99.90;;;;;;5113269;28;20164;-44
2023/09/02 02:51:16;;;;;;;9.52;8.45;;;15.50;99.90;;;;;;5113249;28;20164;-44
2023/09/02 02:53:42;;;;;;;10.07;8.05;;;15.60;99.90;;;;;;5113456;28;20169;-44
2023/09/02 02:56:07;;;;;;;9.20;7.85;;;15.40;99.90;;;;;;5113130;28;20537;-45
2023/09/02 02:58:33;;;;;;;9.20;8.05;;;15.40;99.90;;;;;;5113031;28;20552;-44
2023/09/02 03:01:06;;;;;;;9.60;8.52;;;15.40;99.90;;;;;;5113687;28;20161;-44
2023/09/02 03:03:32;;;;;;;13.00;8.93;;;;;;;;;;5113522;27;20173;-44
2023/09/02 03:06:00;;;;;;;8.80;7.90;;;15.60;99.90;;;;;;5113434;28;20165;-44
2023/09/02 03:08:25;;;;;;;9.13;7.90;;;15.60;99.90;;;;;;5112947;28;20202;-44
2023/09/02 03:10:59;;;;;;;9.80;8.25;;;15.60;99.90;;;;;;5112833;28;20164;-44
2023/09/02 03:13:25;;;;;;;10.48;8.07;;;15.40;99.90;;;;;;5112830;28;20230;-44
2023/09/02 03:15:53;;;;;;;12.95;8.55;;;15.60;99.90;;;;;;5113007;28;20173;-44
2023/09/02 03:18:19;;;;;;;11.55;8.68;;;15.40;99.90;;;;;;5112893;28;20306;-44
2023/09/02 03:20:45;;;;;;;9.30;8.27;;;15.50;99.90;;;;;;5112666;28;20165;-44
2023/09/02 03:23:10;;;;;;;9.27;8.23;;;15.40;99.90;;;;;;5112637;28;20218;-44
2023/09/02 03:25:37;;;;;;;11.63;8.20;;;15.40;99.90;;;;;;5112558;28;20248;-44
2023/09/02 03:28:04;;;;;;;11.57;9.13;;;15.40;99.90;;;;;;5112769;28;20183;-44
2023/09/02 03:30:30;;;;;;;13.73;8.45;;;15.60;99.90;;;;;;5112976;28;20169;-44
2023/09/02 03:32:55;;;;;;;11.02;9.00;;;15.40;99.90;;;;;;5112459;28;20169;-45
2023/09/02 03:35:21;;;;;;;13.70;9.52;;;15.50;99.90;;;;;;5112435;28;20171;-45
2023/09/02 03:37:46;;;;;;;14.38;9.88;;;15.50;99.90;;;;;;5112280;28;20750;-44
2023/09/02 03:40:12;;;;;;;12.13;9.45;;;15.60;99.90;;;;;;5112309;28;20701;-44
2023/09/02 03:42:37;;;;;;;14.70;10.43;;;15.50;99.90;;;;;;5112274;28;20176;-45
2023/09/02 03:45:03;;;;;;;21.02;12.27;;;15.40;99.90;;;;;;5112108;28;20285;-45
2023/09/02 03:47:31;;;;;;;18.25;11.10;;;15.40;99.90;;;;;;5112519;28;20168;-45
2023/09/02 03:49:57;;;;;;;18.42;12.05;;;15.50;99.90;;;;;;5112088;28;20625;-44
2023/09/02 03:52:22;;;;;;;19.80;13.02;;;15.50;99.90;;;;;;5112128;28;20188;-44
2023/09/02 03:54:48;;;;;;;19.05;12.05;;;15.50;99.90;;;;;;5112177;28;20188;-44
2023/09/02 03:57:13;;;;;;;16.38;10.98;;;15.40;99.90;;;;;;5112029;28;20211;-44
2023/09/02 03:59:39;;;;;;;17.58;12.00;;;15.60;99.90;;;;;;5112117;28;20164;-45
2023/09/02 04:02:04;;;;;;;13.32;9.43;;;15.50;99.90;;;;;;5112025;28;20171;-45
2023/09/02 04:04:30;;;;;;;13.18;10.23;;;15.50;99.90;;;;;;5112457;28;20537;-44
2023/09/02 04:06:56;;;;;;;12.48;9.23;;;15.40;99.90;;;;;;5111947;28;20184;-45
2023/09/02 04:09:21;;;;;;;13.80;9.85;;;15.50;99.90;;;;;;5112161;28;20169;-44
2023/09/02 04:11:47;;;;;;;21.63;13.20;;;;;;;;;;5110703;28;20173;-45
2023/09/02 04:14:13;;;;;;;18.60;12.50;;;15.50;99.90;;;;;;5111938;28;20217;-45
2023/09/02 04:16:39;;;;;;;22.77;15.18;;;15.20;99.90;;;;;;5111772;28;20200;-45
2023/09/02 04:19:04;;;;;;;19.88;13.05;;;15.30;99.90;;;;;;5111824;28;20229;-44
2023/09/02 04:21:31;;;;;;;18.83;11.82;;;15.30;99.90;;;;;;5112143;28;20200;-44
2023/09/02 04:23:56;;;;;;;17.58;13.13;;;15.20;99.90;;;;;;5112252;28;20625;-44
2023/09/02 04:26:22;;;;;;;21.65;12.73;;;;;;;;;;5111776;28;20290;-45
2023/09/02 04:28:49;;;;;;;19.60;12.98;;;15.30;99.90;;;;;;5111800;28;20192;-44
2023/09/02 04:31:14;;;;;;;17.85;13.02;;;15.10;99.90;;;;;;5111806;28;20679;-44
2023/09/02 04:33:40;;;;;;;16.30;11.27;;;15.10;99.90;;;;;;5111720;28;20164;-44
2023/09/02 04:36:05;;;;;;;19.58;12.77;;;15.20;99.90;;;;;;5111745;28;20165;-45
2023/09/02 04:38:32;;;;;;;18.90;13.65;;;;;;;;;;5112265;28;20254;-45
2023/09/02 04:41:01;;;;;;;18.30;11.13;;;15.10;99.90;;;;;;5112017;28;20527;-45
2023/09/02 04:43:27;;;;;;;19.80;12.27;;;15.20;99.90;;;;;;5111942;28;20200;-44
2023/09/02 04:45:53;;;;;;;14.95;11.70;;;15.20;99.90;;;;;;5111596;28;20180;-44
2023/09/02 04:48:18;;;;;;;16.73;11.43;;;15.20;99.90;;;;;;5111580;28;20172;-44
2023/09/02 04:50:53;;;;;;;15.13;11.35;;;15.10;99.90;;;;;;5111548;28;20217;-45
2023/09/02 04:53:19;;;;;;;17.08;12.02;;;15.20;99.90;;;;;;5110186;28;20628;-45
2023/09/02 04:55:44;;;;;;;17.13;12.82;;;15.30;99.90;;;;;;5111570;28;20203;-44
2023/09/02 04:58:10;;;;;;;19.55;13.88;;;15.00;99.90;;;;;;5112566;28;20208;-44
2023/09/02 05:00:37;;;;;;;17.52;13.20;;;15.20;99.90;;;;;;5115393;28;20190;-45
2023/09/02 05:03:03;;;;;;;19.23;12.00;;;15.20;99.90;;;;;;5115654;28;20259;-45
2023/09/02 05:05:29;;;;;;;18.38;11.73;;;15.10;99.90;;;;;;5115800;28;20636;-45
2023/09/02 05:07:56;;;;;;;20.60;12.52;;;15.00;99.90;;;;;;5115270;28;20183;-45
2023/09/02 05:10:22;;;;;;;24.63;13.32;;;15.10;99.90;;;;;;5115447;28;20202;-45
2023/09/02 05:12:47;;;;;;;29.77;13.55;;;15.10;99.90;;;;;;5115173;28;20169;-45
2023/09/02 05:15:13;;;;;;;19.90;13.88;;;15.20;99.90;;;;;;5115152;28;20160;-46
2023/09/02 05:17:38;;;;;;;29.25;12.05;;;15.00;99.90;;;;;;5115314;28;20291;-45
2023/09/02 05:20:05;;;;;;;56.00;13.40;;;15.20;99.90;;;;;;5115055;28;20173;-45
2023/09/02 05:22:31;;;;;;;39.03;14.70;;;;;;;;;;5115275;28;20622;-45
2023/09/02 05:24:57;;;;;;;17.33;11.00;;;15.10;99.90;;;;;;5115464;28;20526;-44
2023/09/02 05:27:23;;;;;;;31.20;10.85;;;15.30;99.90;;;;;;5114912;28;20165;-45
2023/09/02 05:29:48;;;;;;;26.77;10.95;;;15.20;99.90;;;;;;5114809;28;20168;-45
2023/09/02 05:32:16;;;;;;;36.72;10.20;;;15.20;99.90;;;;;;5114813;28;20264;-44
2023/09/02 05:34:41;;;;;;;19.60;10.65;;;15.40;99.90;;;;;;5114744;28;20160;-45
2023/09/02 05:37:07;;;;;;;36.95;11.65;;;15.40;99.90;;;;;;5114639;28;20607;-44
2023/09/02 05:39:32;;;;;;;21.95;9.50;;;15.50;99.90;;;;;;5114752;28;20165;-45
2023/09/02 05:41:58;;;;;;;31.92;10.77;;;15.30;99.90;;;;;;5115061;28;20172;-45
2023/09/02 05:44:24;;;;;;;41.90;9.32;;;15.30;99.90;;;;;;5114380;28;20217;-44
2023/09/02 05:46:50;;;;;;;31.55;10.45;;;15.40;99.90;;;;;;5114489;28;20625;-45
2023/09/02 05:49:15;;;;;;;33.83;10.52;;;15.30;99.90;;;;;;5114760;28;20172;-45
2023/09/02 05:51:41;;;;;;;27.67;10.50;;;15.50;99.90;;;;;;5114434;28;20169;-45
2023/09/02 05:54:09;;;;;;;43.55;11.32;;;15.40;99.90;;;;;;5114425;28;20168;-45
2023/09/02 05:56:37;;;;;;;13.00;9.90;;;15.60;99.90;;;;;;5114529;28;20173;-45
2023/09/02 05:59:03;;;;;;;29.52;10.20;;;15.70;99.90;;;;;;5114463;28;20237;-44
2023/09/02 06:01:30;;;;;;;20.85;9.65;;;15.60;99.90;;;;;;5114953;28;20214;-44
2023/09/02 06:03:55;;;;;;;13.50;10.90;;;15.60;99.90;;;;;;5114108;28;20649;-45
2023/09/02 06:06:22;;;;;;;13.52;9.32;;;15.80;99.90;;;;;;5114184;28;20169;-45
2023/09/02 06:08:48;;;;;;;17.80;9.23;;;15.70;99.90;;;;;;5114049;28;20247;-46
2023/09/02 06:11:14;;;;;;;13.10;10.02;;;15.80;99.90;;;;;;5111937;28;20171;-45
2023/09/02 06:13:40;;;;;;;13.70;9.80;;;15.80;99.90;;;;;;5114014;28;20169;-45
2023/09/02 06:16:06;;;;;;;31.80;13.63;;;15.80;99.90;;;;;;5113940;28;20203;-45
2023/09/02 06:18:33;;;;;;;21.10;9.77;;;15.90;99.90;;;;;;5114083;28;20222;-45
2023/09/02 06:20:59;;;;;;;15.50;9.38;;;16.00;99.90;;;;;;5114569;28;20217;-45
2023/09/02 06:23:25;;;;;;;16.45;9.82;;;16.10;99.90;;;;;;5113947;28;20165;-45
2023/09/02 06:25:58;;;;;;;17.77;10.95;;;16.20;99.90;;;;;;5113801;28;20701;-45
2023/09/02 06:28:26;;;;;;;16.65;10.25;;;16.00;99.90;;;;;;5113838;28;20176;-44
2023/09/02 06:30:51;;;;;;;13.75;9.88;;;16.10;99.90;;;;;;5113219;28;20251;-45
2023/09/02 06:33:22;;;;;;;9.50;8.43;;;16.10;99.90;;;;;;5113308;28;20254;-44
2023/09/02 06:35:49;;;;;;;14.38;9.23;;;16.20;99.90;;;;;;5113404;28;20160;-45
2023/09/02 06:38:15;;;;;;;12.15;9.70;;;16.30;99.90;;;;;;5111901;28;20208;-45
2023/09/02 06:40:41;;;;;;;10.23;8.25;;;16.30;99.90;;;;;;5113335;28;20251;-44
2023/09/02 06:43:07;;;;;;;15.45;11.15;;;;;;;;;;5113248;28;20667;-45
2023/09/02 06:45:32;;;;;;;23.33;13.85;;;16.60;99.90;;;;;;5113410;28;20563;-44
2023/09/02 06:47:58;;;;;;;22.30;13.55;;;16.40;99.90;;;;;;5113817;28;20165;-45
2023/09/02 06:50:25;;;;;;;11.90;9.55;;;16.60;99.90;;;;;;5112982;28;20164;-45
2023/09/02 06:52:51;;;;;;;12.13;10.85;;;16.70;99.90;;;;;;5113096;28;20255;-45
2023/09/02 06:55:16;;;;;;;12.65;9.10;;;16.80;99.90;;;;;;5113228;28;20196;-44
2023/09/02 06:57:42;;;;;;;11.60;9.68;;;16.80;99.90;;;;;;5112802;28;20283;-45
2023/09/02 07:00:09;;;;;;;16.35;11.95;;;16.70;99.90;;;;;;5112946;28;20200;-45
2023/09/02 07:02:35;;;;;;;17.10;11.50;;;;;;;;;;5112469;28;20172;-44
2023/09/02 07:05:00;;;;;;;14.93;11.10;;;16.90;99.90;;;;;;5113259;28;20225;-44
2023/09/02 07:07:26;;;;;;;15.45;11.27;;;17.00;99.90;;;;;;5113447;27;20157;-45
2023/09/02 07:09:52;;;;;;;17.10;12.98;;;17.10;99.90;;;;;;5112918;28;20161;-45
2023/09/02 07:12:18;;;;;;;13.18;11.32;;;17.20;99.90;;;;;;5112854;28;20164;-44
2023/09/02 07:14:44;;;;;;;18.00;13.45;;;17.20;99.90;;;;;;5113115;28;20156;-45
2023/09/02 07:17:09;;;;;;;20.20;14.77;;;17.20;99.90;;;;;;5112521;28;20184;-45
2023/09/02 07:19:35;;;;;;;24.33;15.95;;;17.20;99.90;;;;;;5112496;28;20675;-45
2023/09/02 07:22:00;;;;;;;25.70;18.40;;;17.30;99.90;;;;;;5113033;28;20169;-44
2023/09/02 07:24:26;;;;;;;27.38;18.38;;;17.40;99.90;;;;;;5112658;28;20547;-44
2023/09/02 07:26:52;;;;;;;27.15;18.08;;;;;;;;;;5112519;28;20160;-44
2023/09/02 07:29:17;;;;;;;28.17;18.70;;;17.70;99.90;;;;;;5112774;28;20195;-44
2023/09/02 07:31:43;;;;;;;23.48;17.20;;;17.80;99.90;;;;;;5112151;28;20503;-45
2023/09/02 07:34:09;;;;;;;19.77;15.88;;;17.80;99.90;;;;;;5112533;28;20172;-45
2023/09/02 07:36:35;;;;;;;23.55;17.23;;;;;;;;;;5112283;28;20171;-44
2023/09/02 07:39:01;;;;;;;21.85;16.30;;;;;;;;;;5111824;28;20606;-45
2023/09/02 07:41:27;;;;;;;21.13;16.52;;;18.00;99.90;;;;;;5105093;28;20169;-45
2023/09/02 07:43:53;;;;;;;25.98;16.63;;;18.00;99.90;;;;;;5091253;28;20209;-45
2023/09/02 07:46:18;;;;;;;22.63;17.38;;;18.10;99.90;;;;;;5091219;28;20516;-45
2023/09/02 07:48:45;;;;;;;21.17;16.23;;;18.30;99.90;;;;;;5091595;28;20653;-45
2023/09/02 07:51:11;;;;;;;21.40;17.75;;;18.50;99.90;;;;;;5091588;28;20168;-45
2023/09/02 07:53:37;;;;;;;18.52;15.32;;;18.50;99.90;;;;;;5090386;28;20579;-44
2023/09/02 07:56:02;;;;;;;22.95;17.50;;;18.30;99.90;;;;;;5091790;28;20161;-45
2023/09/02 07:58:28;;;;;;;22.80;18.45;;;18.30;99.90;;;;;;5091993;28;20213;-47
2023/09/02 08:00:56;;;;;;;21.42;18.40;;;18.40;99.90;;;;;;5091707;28;20157;-44
2023/09/02 08:03:22;;;;;;;21.88;18.00;;;18.50;99.90;;;;;;5091709;28;20195;-45
2023/09/02 08:05:48;;;;;;;24.55;20.58;;;18.60;99.90;;;;;;5091969;28;20177;-45
2023/09/02 08:08:13;;;;;;;25.10;18.65;;;18.90;99.90;;;;;;5091254;28;20169;-44
2023/09/02 08:10:39;;;;;;;22.90;17.30;;;18.80;99.90;;;;;;5091094;28;20169;-45
2023/09/02 08:13:05;;;;;;;24.98;18.58;;;19.10;99.90;;;;;;5091223;28;20181;-45
2023/09/02 08:15:30;;;;;;;26.10;20.92;;;18.90;99.90;;;;;;5091976;28;20169;-44
2023/09/02 08:17:56;;;;;;;23.38;19.98;;;19.10;99.90;;;;;;5091519;28;20204;-44
2023/09/02 08:20:22;;;;;;;25.85;20.20;;;19.30;99.90;;;;;;5091406;28;20165;-45
2023/09/02 08:22:48;;;;;;;23.75;19.77;;;19.30;99.90;;;;;;5091760;28;20239;-44
2023/09/02 08:25:13;;;;;;;26.10;19.90;;;19.50;99.90;;;;;;5091425;28;20622;-45
2023/09/02 08:27:43;;;;;;;29.23;20.88;;;19.30;99.90;;;;;;5091315;28;20590;-45
2023/09/02 08:30:10;;;;;;;28.52;22.02;;;19.40;99.90;;;;;;5091309;28;20254;-45
2023/09/02 08:32:35;;;;;;;28.52;21.23;;;19.40;99.90;;;;;;5091585;28;20200;-44
2023/09/02 08:35:01;;;;;;;23.15;18.63;;;;;;;;;;5095478;28;20192;-45
2023/09/02 08:37:26;;;;;;;22.38;18.67;;;19.60;99.90;;;;;;5095937;28;20228;-45
2023/09/02 08:39:52;;;;;;;21.10;18.40;;;19.70;99.90;;;;;;5095258;28;20197;-44
2023/09/02 08:42:18;;;;;;;24.23;19.05;;;;;;;;;;5095244;28;20594;-44
2023/09/02 08:44:47;;;;;;;22.10;18.92;;;19.70;99.90;;;;;;5095019;28;20224;-45
2023/09/02 08:47:15;;;;;;;21.63;18.70;;;19.80;99.90;;;;;;5095365;28;20169;-44
2023/09/02 08:49:41;;;;;;;24.33;18.90;;;20.00;99.90;;;;;;5095119;28;20162;-44
2023/09/02 08:52:08;;;;;;;21.90;19.40;;;20.10;99.90;;;;;;5095081;28;20172;-44
2023/09/02 08:54:34;;;;;;;24.35;18.65;;;20.40;99.90;;;;;;5095163;28;20201;-44
2023/09/02 08:57:01;;;;;;;24.38;19.58;;;;;;;;;;5095689;28;20166;-44
2023/09/02 08:59:28;;;;;;;22.83;19.02;;;20.20;99.90;;;;;;5095437;28;20217;-44
2023/09/02 09:01:56;;;;;;;21.98;18.70;;;20.40;99.90;;;;;;5094998;28;20162;-44
2023/09/02 09:04:22;;;;;;;23.08;18.70;;;20.50;99.90;;;;;;5094900;28;20172;-44
2023/09/02 09:06:50;;;;;;;20.88;17.23;;;20.60;99.90;;;;;;5095179;28;20166;-44
2023/09/02 09:09:17;;;;;;;21.02;18.65;;;20.60;99.90;;;;;;5094858;28;20630;-44
2023/09/02 09:11:44;;;;;;;20.00;17.67;;;;;;;;;;5094799;28;20250;-44
2023/09/02 09:14:22;;;;;;;20.17;17.08;;;21.20;99.90;;;;;;5094758;28;20169;-46
2023/09/02 09:16:51;;;;;;;17.88;15.55;;;21.20;99.90;;;;;;5094798;28;20294;-44
2023/09/02 09:19:17;;;;;;;18.55;16.35;;;21.30;99.90;;;;;;5094702;28;20180;-45
2023/09/02 09:21:44;;;;;;;16.75;14.80;;;21.50;99.90;;;;;;5094593;28;20158;-45
2023/09/02 09:24:12;;;;;;;18.55;15.15;;;21.80;99.90;;;;;;5094410;28;20555;-44
2023/09/02 09:26:39;;;;;;;17.20;14.57;;;;;;;;;;5094448;28;20592;-44
2023/09/02 09:29:14;;;;;;;24.35;17.65;;;21.80;99.90;;;;;;5094441;28;20230;-44
2023/09/02 09:31:40;;;;;;;14.90;12.50;;;21.90;99.90;;;;;;5094349;28;20427;-47
2023/09/02 09:34:06;;;;;;;14.43;12.88;;;;;;;;;;5094633;28;20576;-48
2023/09/02 09:36:33;;;;;;;16.15;13.50;;;22.00;99.90;;;;;;5094564;28;20568;-47
2023/09/02 09:39:00;;;;;;;16.88;13.57;;;;;;;;;;5094636;28;20203;-46
2023/09/02 09:41:27;;;;;;;16.35;12.70;;;22.20;99.90;;;;;;5094726;28;20193;-46
2023/09/02 09:44:13;;;;;;;24.23;16.95;;;22.40;99.90;;;;;;5093819;28;20215;-47
2023/09/02 09:46:51;;;;;;;14.68;10.65;;;22.30;99.90;;;;;;5094136;28;20169;-45
2023/09/02 09:49:26;;;;;;;14.43;11.60;;;22.40;99.90;;;;;;5093965;28;20229;-49
2023/09/02 09:52:01;;;;;;;28.10;18.20;;;22.50;99.90;;;;;;5093920;28;20169;-49
2023/09/02 09:54:37;;;;;;;26.65;17.42;;;22.40;99.90;;;;;;5094393;28;20188;-48
2023/09/02 09:57:03;;;;;;;9.43;8.25;;;22.50;99.90;;;;;;5094021;28;20189;-48
2023/09/02 09:59:29;;;;;;;11.00;7.70;;;22.60;99.90;;;;;;5094207;28;20255;-47
2023/09/02 10:01:54;;;;;;;32.28;20.95;;;22.80;99.90;;;;;;5093730;28;20215;-48
2023/09/02 10:04:20;;;;;;;6.22;5.35;;;22.90;99.90;;;;;;5093804;28;20169;-48
2023/09/02 10:06:48;;;;;;;22.42;13.38;;;23.00;99.90;;;;;;5093720;28;20304;-47
2023/09/02 10:09:13;;;;;;;6.90;5.15;;;23.10;99.90;;;;;;5093685;28;20661;-45
2023/09/02 10:11:39;;;;;;;16.30;10.05;;;23.20;99.90;;;;;;5093759;28;20169;-45
2023/09/02 10:14:05;;;;;;;5.63;3.50;;;23.30;99.90;;;;;;5093579;28;20171;-48
2023/09/02 10:16:34;;;;;;;10.30;7.30;;;23.40;99.90;;;;;;5093675;28;20213;-49
2023/09/02 10:19:02;;;;;;;7.88;5.65;;;23.10;99.90;;;;;;5093776;28;20236;-45
2023/09/02 10:21:29;;;;;;;7.25;4.90;;;23.30;99.90;;;;;;5093850;28;20210;-46
2023/09/02 10:24:00;;;;;;;8.02;5.78;;;23.20;99.90;;;;;;5093728;28;20169;-46
2023/09/02 10:26:37;;;;;;;11.05;7.50;;;23.60;99.90;;;;;;5094047;28;20214;-44
2023/09/02 10:29:07;;;;;;;8.18;5.75;;;23.60;99.90;;;;;;5093553;28;20234;-44
2023/09/02 10:31:39;;;;;;;9.60;6.78;;;23.70;99.90;;;;;;5093147;28;20173;-45
2023/09/02 10:34:14;;;;;;;7.45;5.10;;;24.00;99.90;;;;;;5093138;28;20536;-44
2023/09/02 10:36:44;;;;;;;13.98;9.30;;;24.30;99.90;;;;;;5093383;28;20168;-44
2023/09/02 10:39:22;;;;;;;7.05;5.93;;;24.10;99.90;;;;;;5092972;28;20211;-44
2023/09/02 10:41:49;;;;;;;8.88;5.50;;;23.90;99.90;;;;;;5093328;28;20168;-44
2023/09/02 10:44:17;;;;;;;9.07;6.38;;;23.90;99.90;;;;;;5092937;28;20762;-49
2023/09/02 10:46:43;;;;;;;7.50;5.90;;;23.80;99.90;;;;;;5093257;28;20576;-44
2023/09/02 10:49:09;;;;;;;7.43;5.53;;;23.80;99.90;;;;;;5093214;28;20171;-44
2023/09/02 10:51:38;;;;;;;17.25;11.40;;;23.90;99.90;;;;;;5092841;28;20251;-46
2023/09/02 10:54:04;;;;;;;7.20;6.50;;;24.30;99.90;;;;;;5092827;28;20156;-44
2023/09/02 10:56:32;;;;;;;11.95;7.05;;;24.60;99.90;;;;;;5092809;28;20226;-44
2023/09/02 10:59:01;;;;;;;9.23;6.05;;;24.80;99.90;;;;;;5093320;28;20292;-45
2023/09/02 11:01:45;;;;;;;10.07;6.55;;;24.60;99.90;;;;;;5093153;28;20169;-45
2023/09/02 11:04:10;;;;;;;7.10;5.45;;;25.20;99.90;;;;;;5093027;28;20592;-47
2023/09/02 11:06:36;;;;;;;9.52;5.20;;;25.30;99.90;;;;;;5092523;28;20200;-44
2023/09/02 11:09:02;;;;;;;9.57;5.78;;;25.40;99.90;;;;;;5092581;28;20169;-44
2023/09/02 11:12:06;;;;;;;7.65;5.10;;;25.50;99.90;;;;;;5092971;28;20255;-50
2023/09/02 11:14:32;;;;;;;6.65;4.32;;;25.30;99.90;;;;;;5092311;28;20645;-45
2023/09/02 11:17:27;;;;;;;6.82;4.90;;;25.30;99.90;;;;;;5092740;28;20210;-45
2023/09/02 11:19:57;;;;;;;8.75;5.32;;;25.00;99.90;;;;;;5092661;28;20169;-47
2023/09/02 11:22:48;;;;;;;5.78;4.05;;;24.90;99.90;;;;;;5092344;28;20556;-47
2023/09/02 11:25:37;;;;;;;7.93;4.30;;;24.60;99.90;;;;;;5092558;28;20164;-45
2023/09/02 11:28:07;;;;;;;5.63;3.72;;;24.50;99.90;;;;;;5092297;28;20268;-44
2023/09/02 11:30:37;;;;;;;4.03;3.65;;;25.00;99.90;;;;;;5092385;28;20577;-46
2023/09/02 11:33:03;;;;;;;4.70;3.40;;;25.20;99.90;;;;;;5092134;28;20187;-45
2023/09/02 11:35:36;;;;;;;5.57;4.30;;;25.10;99.90;;;;;;5092699;28;20259;-46
2023/09/02 11:38:15;;;;;;;5.63;4.10;;;25.00;99.90;;;;;;5091853;28;20197;-45
2023/09/02 11:40:41;;;;;;;5.95;3.90;;;;;;;;;;5091920;28;20175;-44
2023/09/02 11:43:07;;;;;;;10.55;5.22;;;25.30;99.90;;;;;;5091859;28;20169;-44
2023/09/02 11:45:35;;;;;;;5.15;4.22;;;25.70;99.90;;;;;;5091451;28;20218;-44
2023/09/02 11:48:02;;;;;;;7.00;4.05;;;25.80;99.90;;;;;;5091833;28;20188;-44
2023/09/02 11:50:28;;;;;;;3.92;3.47;;;25.60;99.90;;;;;;5092054;28;20156;-44
2023/09/02 11:52:56;;;;;;;5.32;4.43;;;25.10;99.90;;;;;;5090277;28;20217;-46
2023/09/02 11:55:22;;;;;;;12.02;4.82;;;24.70;99.90;;;;;;5091834;28;20564;-45
2023/09/02 11:57:48;;;;;;;5.38;4.00;;;24.70;99.90;;;;;;5091726;28;20586;-44
2023/09/02 12:00:16;;;;;;;15.25;9.60;;;24.80;99.90;;;;;;5091646;28;20172;-44
2023/09/02 12:02:42;;;;;;;6.38;4.15;;;24.80;99.90;;;;;;5091609;28;20651;-44
2023/09/02 12:05:08;;;;;;;28.27;18.52;;;;;;;;;;5091677;28;20180;-44
2023/09/02 12:07:36;;;;;;;8.18;4.57;;;25.50;99.90;;;;;;5090677;28;20524;-44
2023/09/02 12:10:09;;;;;;;5.93;3.50;;;25.60;99.90;;;;;;5090874;28;20269;-44
2023/09/02 12:12:40;;;;;;;6.10;3.97;;;25.80;99.90;;;;;;5090964;28;20222;-44
2023/09/02 12:15:06;;;;;;;6.63;3.50;;;25.80;99.90;;;;;;5091567;28;20629;-44
2023/09/02 12:17:32;;;;;;;4.63;3.55;;;25.80;99.90;;;;;;5091341;28;20204;-45
2023/09/02 12:19:58;;;;;;;9.63;3.70;;;26.00;99.90;;;;;;5091695;28;20171;-44
2023/09/02 12:22:24;;;;;;;6.45;3.47;;;26.10;99.90;;;;;;5091309;28;20180;-44
2023/09/02 12:24:51;;;;;;;3.55;2.97;;;;;;;;;;5090166;28;20164;-44
2023/09/02 12:27:17;;;;;;;5.97;3.15;;;26.30;99.90;;;;;;5090448;28;20618;-44
2023/09/02 12:29:54;;;;;;;6.85;3.20;;;26.60;99.90;;;;;;5090659;28;20169;-44
2023/09/02 12:32:19;;;;;;;5.88;2.97;;;26.70;99.90;;;;;;5090582;28;20172;-44
2023/09/02 12:34:45;;;;;;;4.63;2.90;;;26.90;99.90;;;;;;5090785;28;20173;-44
2023/09/02 12:37:18;;;;;;;3.33;3.03;;;26.80;99.90;;;;;;5090510;28;20227;-44
2023/09/02 12:39:44;;;;;;;4.88;3.28;;;27.00;99.90;;;;;;5091537;28;20173;-44
2023/09/02 12:42:16;;;;;;;5.93;3.10;;;27.00;99.90;;;;;;5091387;28;20165;-44
2023/09/02 12:44:52;;;;;;;5.63;3.50;;;27.10;99.90;;;;;;5090891;28;20208;-44